Time;durP1;ratioP1;P1;durP2;ratioP2;P2;SDS_P1;SDS_P2;PMS_P1;PMS_P2;Temp;Humidity;BMP_temperature;BMP_pressure;BME280_temperature;BME280_humidity;BME280_pressure;Samples;Min_cycle;Max_cycle;Signal;HPM_P1;HPM_P2
2022/11/30 05:12:15;;;;;;;;;;;;;;;4.91;81.12;101479.41;5766853;22;19910;-94
2022/11/30 05:18:20;;;;;;;7.38;4.88;;;;;;;4.56;81.45;101437.34;5259021;23;20042;-94
2022/11/30 05:20:49;;;;;;;7.38;4.68;;;;;;;4.76;81.41;101459.97;4995850;28;20052;-88
2022/11/30 05:41:40;;;;;;;10.90;5.28;;;;;;;4.61;82.27;101460.06;4997057;28;20137;-94
2022/11/30 05:44:41;;;;;;;8.15;5.10;;;;;;;4.41;82.06;101433.91;5024145;28;20088;-95
2022/11/30 05:47:37;;;;;;;9.27;5.13;;;;;;;4.82;81.75;101476.41;5004449;28;20038;-95
2022/11/30 05:50:09;;;;;;;9.93;4.85;;;;;;;4.75;81.94;101464.47;5000525;28;20038;-94
2022/11/30 05:53:24;;;;;;;9.68;5.72;;;;;;;4.89;82.03;101486.63;4982570;28;20516;-95
2022/11/30 05:59:33;;;;;;;9.15;5.38;;;;;;;4.83;82.34;101480.78;5014395;28;20076;-94
2022/11/30 06:02:32;;;;;;;9.02;5.68;;;;;;;4.89;82.10;101499.97;4997039;28;20087;-95
2022/11/30 06:05:06;;;;;;;10.45;5.82;;;;;;;4.70;82.06;101471.88;4998174;28;20035;-95
2022/11/30 06:07:40;;;;;;;9.15;5.32;;;;;;;4.80;82.01;101494.31;5021211;28;20024;-95
2022/11/30 06:10:42;;;;;;;11.77;5.32;;;;;;;4.92;82.40;101521.09;4995716;28;20019;-94
2022/11/30 06:30:32;;;;;;;9.65;5.57;;;;;;;4.80;82.30;101504.97;5004895;28;20046;-94
2022/11/30 06:33:16;;;;;;;11.82;5.68;;;;;;;4.89;82.93;101540.78;4990262;28;20137;-95
2022/11/30 06:36:30;;;;;;;9.75;5.90;;;;;;;4.96;82.68;101546.56;5006146;28;20108;-91
2022/11/30 06:43:01;;;;;;;10.43;5.20;;;;;;;4.89;82.43;101546.09;5011168;28;20127;-95
2022/11/30 06:45:28;;;;;;;10.27;5.90;;;;;;;4.75;82.17;101511.53;5017264;28;20057;-90
2022/11/30 06:55:42;;;;;;;9.50;6.18;;;;;;;4.79;82.66;101497.06;5013985;23;20058;-93
2022/11/30 06:58:45;;;;;;;11.70;6.15;;;;;;;4.89;81.99;101514.13;4995468;28;20152;-95
2022/11/30 07:01:16;;;;;;;12.88;6.47;;;;;;;4.88;82.56;101509.78;4985168;28;20053;-95
2022/11/30 07:03:43;;;;;;;12.65;5.97;;;;;;;4.78;81.60;101517.53;4970632;28;20509;-89
2022/11/30 07:06:20;;;;;;;14.13;7.07;;;;;;;4.99;81.95;101546.38;4973918;28;20712;-93
2022/11/30 07:08:58;;;;;;;11.55;6.50;;;;;;;4.93;80.94;101523.63;4995729;28;20114;-92
2022/11/30 07:11:48;;;;;;;9.05;5.97;;;;;;;5.22;80.98;101551.00;4969188;28;20050;-93
2022/11/30 07:14:55;;;;;;;11.68;6.75;;;;;;;5.28;81.09;101525.72;5016298;28;20056;-92
2022/11/30 07:20:16;;;;;;;8.80;5.30;;;;;;;5.18;80.22;101564.63;4996477;28;20052;-92
2022/11/30 07:22:48;;;;;;;13.02;6.82;;;;;;;5.25;80.73;101549.94;5165961;22;20106;-92
2022/11/30 07:28:28;;;;;;;11.98;5.80;;;;;;;4.83;81.18;101504.75;4991401;28;20053;-90
2022/11/30 07:31:37;;;;;;;11.32;6.07;;;;;;;4.99;80.82;101525.06;4990914;28;20042;-93
2022/11/30 07:37:31;;;;;;;9.95;5.93;;;;;;;5.00;81.64;101537.41;5138267;23;20069;-94
2022/11/30 07:40:06;;;;;;;9.52;6.18;;;;;;;5.03;81.86;101554.06;4972087;28;20173;-93
2022/11/30 07:42:39;;;;;;;12.10;6.53;;;;;;;5.01;82.21;101550.63;4979656;28;20034;-94
2022/11/30 07:45:18;;;;;;;10.77;6.00;;;;;;;5.07;82.69;101578.69;4981186;28;20042;-93
2022/11/30 07:47:49;;;;;;;11.05;6.20;;;;;;;4.77;82.23;101544.25;4975261;28;20042;-96
2022/11/30 07:50:22;;;;;;;12.27;6.90;;;;;;;4.80;82.75;101552.03;4957390;29;20098;-93
2022/11/30 07:53:01;;;;;;;10.45;6.30;;;;;;;4.83;83.13;101570.50;4942157;29;20112;-94
2022/11/30 07:55:33;;;;;;;10.82;6.18;;;;;;;4.79;82.75;101564.53;4930191;29;20054;-94
2022/11/30 07:58:02;;;;;;;10.00;5.80;;;;;;;4.67;82.32;101546.69;4963394;28;20040;-95
2022/11/30 08:00:30;;;;;;;10.40;6.32;;;;;;;4.74;82.45;101548.00;4954012;28;20207;-94
2022/11/30 08:03:00;;;;;;;10.05;5.55;;;;;;;4.79;82.20;101555.69;4937041;29;20060;-92
2022/11/30 08:05:31;;;;;;;10.02;5.35;;;;;;;4.86;81.65;101567.63;4943669;29;20572;-91
2022/11/30 08:08:04;;;;;;;11.57;5.97;;;;;;;4.84;81.52;101565.06;4938825;29;20174;-92
2022/11/30 08:10:34;;;;;;;14.57;6.95;;;;;;;4.92;81.74;101561.91;4951336;29;20246;-92
2022/11/30 08:13:50;;;;;;;12.23;6.75;;;;;;;4.80;82.75;101546.72;4944672;29;20205;-91
2022/11/30 08:16:31;;;;;;;12.70;7.38;;;;;;;4.86;82.19;101548.97;4961779;29;20106;-93
2022/11/30 08:19:24;;;;;;;9.07;5.70;;;;;;;4.89;81.51;101545.25;4949266;29;20039;-94
2022/11/30 08:22:00;;;;;;;10.05;5.95;;;;;;;4.92;82.30;101547.75;4952223;29;20047;-94
2022/11/30 08:24:49;;;;;;;11.50;5.80;;;;;;;5.07;82.21;101579.53;4947854;29;20464;-92
2022/11/30 08:27:25;;;;;;;8.05;4.60;;;;;;;5.01;81.42;101577.28;4964918;28;20019;-89
2022/11/30 08:30:05;;;;;;;;;;;;;;;5.10;81.66;101581.13;4991998;28;20022;-94
2022/11/30 08:32:43;;;;;;;8.77;5.32;;;;;;;4.81;82.13;101530.63;4996648;28;19972;-93
2022/11/30 08:35:10;;;;;;;8.88;5.25;;;;;;;4.78;81.96;101522.84;4946287;28;20046;-93
2022/11/30 08:37:38;;;;;;;7.55;4.53;;;;;;;4.95;81.51;101555.53;5000176;28;21443;-92
2022/11/30 08:40:59;;;;;;;7.45;4.80;;;;;;;4.62;81.85;101525.69;4949133;28;20435;-92
2022/11/30 08:47:21;;;;;;;;;;;;;;;;;;;;;
2022/11/30 08:50:17;;;;;;;6.50;4.05;;;;;;;4.81;81.17;101538.63;4923407;29;20111;-95
2022/11/30 08:53:08;;;;;;;7.38;4.60;;;;;;;4.73;81.30;101559.63;4940032;29;20122;-95
2022/11/30 08:56:13;;;;;;;6.63;4.25;;;;;;;4.71;80.99;101534.88;4938861;29;20040;-95
2022/11/30 08:58:51;;;;;;;8.35;4.30;;;;;;;4.63;81.30;101537.19;4912185;29;20035;-93
2022/11/30 09:01:24;;;;;;;7.30;4.45;;;;;;;4.72;81.52;101557.88;4909080;29;20110;-92
2022/11/30 09:04:12;;;;;;;6.70;4.07;;;;;;;4.53;81.16;101517.44;4928791;29;20044;-92
2022/11/30 09:07:21;;;;;;;7.93;4.55;;;;;;;4.80;80.97;101552.03;5075939;23;20069;-94
2022/11/30 09:10:17;;;;;;;7.20;4.20;;;;;;;4.51;81.20;101500.72;4978912;28;20110;-93
2022/11/30 09:13:18;;;;;;;9.00;4.60;;;;;;;4.58;81.24;101518.00;4981210;28;20039;-95
2022/11/30 09:19:35;;;;;;;8.13;4.20;;;;;;;4.67;81.21;101519.19;4979299;28;20046;-93
2022/11/30 09:22:09;;;;;;;9.20;5.32;;;;;;;4.72;81.56;101531.25;4944539;28;20046;-92
2022/11/30 09:25:12;;;;;;;7.32;4.50;;;;;;;4.82;81.88;101548.34;4982168;28;20031;-90
2022/11/30 09:27:40;;;;;;;6.82;4.18;;;;;;;4.50;81.56;101522.97;4982833;28;20065;-90
2022/11/30 09:33:28;;;;;;;11.40;6.43;;;;;;;4.68;81.87;101551.03;4956951;29;20086;-92
2022/11/30 09:36:11;;;;;;;11.60;7.20;;;;;;;4.86;82.51;101551.66;4968633;28;20031;-95
2022/11/30 09:38:43;;;;;;;7.80;4.55;;;;;;;4.80;81.41;101538.72;4959550;28;20086;-94
2022/11/30 09:41:27;;;;;;;10.40;6.00;;;;;;;4.97;81.66;101566.94;4952822;28;20051;-94
2022/11/30 09:44:02;;;;;;;7.70;4.95;;;;;;;4.77;81.40;101537.13;4975044;28;20117;-90
2022/11/30 09:46:32;;;;;;;9.00;4.90;;;;;;;4.67;81.17;101521.88;4972927;28;20472;-91
2022/11/30 09:49:03;;;;;;;7.45;4.47;;;;;;;5.04;80.44;101571.75;4957404;28;20039;-93
2022/11/30 09:51:45;;;;;;;9.02;4.85;;;;;;;4.88;81.11;101525.75;4954012;28;20038;-93
2022/11/30 09:54:17;;;;;;;8.82;4.90;;;;;;;4.81;80.18;101530.63;4973123;28;20027;-91
2022/11/30 09:56:53;;;;;;;8.77;4.93;;;;;;;5.02;80.99;101556.81;4948404;28;20031;-92
2022/11/30 09:59:25;;;;;;;8.30;4.50;;;;;;;5.07;80.33;101550.19;4983395;28;20046;-91
2022/11/30 10:02:17;;;;;;;8.77;5.47;;;;;;;4.83;80.58;101510.06;4987794;28;20031;-92
2022/11/30 10:08:52;;;;;;;6.80;4.10;;;;;;;4.69;80.60;101528.81;4965528;29;20070;-95
2022/11/30 10:11:52;;;;;;;7.95;4.60;;;;;;;4.78;80.43;101536.19;4955446;29;20460;-94
2022/11/30 10:14:38;;;;;;;6.57;4.20;;;;;;;4.76;80.83;101531.91;4946912;29;20039;-94
2022/11/30 10:17:50;;;;;;;8.25;4.63;;;;;;;4.72;80.44;101525.91;4935620;29;20484;-92
2022/11/30 10:20:52;;;;;;;9.73;4.13;;;;;;;4.59;80.75;101519.72;4943340;29;20043;-93
2022/11/30 10:24:01;;;;;;;7.30;4.35;;;;;;;4.67;81.68;101519.19;4961821;29;20043;-93
2022/11/30 10:26:54;;;;;;;8.95;4.57;;;;;;;4.23;81.57;101465.25;4948801;29;20114;-93
2022/11/30 10:29:41;;;;;;;7.50;4.43;;;;;;;4.32;81.59;101467.31;4953178;29;20054;-95
2022/11/30 10:32:21;;;;;;;7.82;4.72;;;;;;;4.80;81.64;101530.72;4926307;29;20083;-92
2022/11/30 10:35:29;;;;;;;8.73;4.93;;;;;;;4.90;81.05;101523.00;4937739;29;20204;-94
2022/11/30 10:38:02;;;;;;;7.93;4.60;;;;;;;4.67;80.96;101477.44;4958132;28;20097;-96
2022/11/30 10:40:39;;;;;;;8.95;5.28;;;;;;;4.63;80.72;101466.13;4968100;28;20037;-94
2022/11/30 10:43:21;;;;;;;6.90;4.20;;;;;;;4.70;80.17;101482.53;4943888;28;20110;-95
2022/11/30 10:45:49;;;;;;;8.40;4.65;;;;;;;4.73;80.42;101506.34;4976853;28;20054;-92
2022/11/30 10:51:45;;;;;;;8.60;4.65;;;;;;;4.93;80.79;101512.13;4979078;28;20553;-95
2022/11/30 10:54:18;;;;;;;8.00;4.70;;;;;;;4.89;80.35;101500.81;4963710;28;20089;-93
2022/11/30 10:57:25;;;;;;;12.05;5.82;;;;;;;5.17;79.92;101521.09;4945001;28;20169;-93
2022/11/30 10:59:59;;;;;;;9.20;4.90;;;;;;;5.08;79.34;101487.09;4980329;28;20034;-89
2022/11/30 11:02:36;;;;;;;8.80;5.57;;;;;;;5.21;79.44;101513.75;4977772;28;20030;-91
2022/11/30 11:05:32;;;;;;;8.70;4.95;;;;;;;5.31;80.03;101529.97;4974362;28;20031;-91
2022/11/30 11:11:28;;;;;;;7.93;4.68;;;;;;;5.29;79.31;101514.94;4973544;29;20123;-91
2022/11/30 11:14:28;;;;;;;8.70;5.43;;;;;;;5.31;79.53;101519.31;4990867;28;20110;-92
2022/11/30 11:17:31;;;;;;;8.93;4.45;;;;;;;5.40;79.42;101486.69;4979330;28;20094;-91
2022/11/30 11:23:40;;;;;;;7.10;4.80;;;;;;;5.56;78.71;101465.97;4967142;28;20197;-90
2022/11/30 11:26:25;;;;;;;7.75;4.70;;;;;;;5.60;78.29;101486.13;4957761;28;20081;-91
2022/11/30 11:28:53;;;;;;;7.32;4.72;;;;;;;5.47;78.32;101483.47;4973347;28;20047;-90
2022/11/30 11:34:42;;;;;;;8.35;5.10;;;;;;;5.23;78.99;101485.19;4975297;28;20085;-89
2022/11/30 11:41:23;;;;;;;8.73;5.03;;;;;;;5.51;79.24;101542.78;4954730;29;20066;-91
2022/11/30 11:48:08;;;;;;;10.18;5.35;;;;;;;5.30;79.16;101550.47;4955040;29;20452;-92
2022/11/30 11:54:07;;;;;;;9.02;5.47;;;;;;;5.22;79.62;101543.00;4947532;29;20049;-91
2022/11/30 12:03:36;;;;;;;11.32;6.10;;;;;;;5.08;80.08;101529.75;4957006;28;20051;-91
2022/11/30 12:33:25;;;;;;;11.00;6.28;;;;;;;5.25;80.43;101573.94;4977754;28;20470;-91
2022/11/30 12:36:29;;;;;;;10.55;6.70;;;;;;;5.09;81.14;101550.09;4978763;28;20043;-94
2022/11/30 12:38:59;;;;;;;10.57;6.25;;;;;;;5.23;80.27;101576.69;4977815;28;20039;-93
2022/11/30 12:41:41;;;;;;;10.35;6.28;;;;;;;4.99;80.25;101546.38;4955738;28;20046;-91
2022/11/30 12:44:46;;;;;;;11.90;6.35;;;;;;;5.18;81.02;101584.16;4958357;28;20105;-93
2022/11/30 12:47:55;;;;;;;11.00;6.57;;;;;;;4.89;80.93;101542.59;4964231;28;20039;-95
2022/11/30 12:50:49;;;;;;;10.82;7.00;;;;;;;4.96;81.51;101547.41;4997670;28;20049;-96
2022/11/30 12:53:42;;;;;;;10.73;6.78;;;;;;;5.28;80.94;101593.22;4959223;28;20050;-95
2022/11/30 12:56:21;;;;;;;9.82;5.60;;;;;;;5.34;81.06;101591.09;4978098;28;20026;-94
2022/11/30 12:59:05;;;;;;;8.32;5.28;;;;;;;5.41;80.19;101587.06;4970209;28;20065;-96
2022/11/30 13:02:02;;;;;;;10.57;6.88;;;;;;;5.36;80.82;101571.38;4985433;28;20043;-96
2022/11/30 13:04:58;;;;;;;11.60;6.85;;;;;;;5.42;81.78;101592.28;5001014;28;20033;-94
2022/11/30 13:07:57;;;;;;;9.77;6.82;;;;;;;5.39;80.20;101575.66;4990852;28;20048;-95
2022/11/30 13:10:45;;;;;;;9.85;6.30;;;;;;;5.44;80.47;101601.03;4989427;28;20492;-93
2022/11/30 13:14:00;;;;;;;8.60;5.80;;;;;;;5.23;80.07;101573.16;4975663;28;20039;-94
2022/11/30 13:22:45;;;;;;;10.23;6.18;;;;;;;5.23;80.28;101573.16;5340431;22;20054;-94
2022/11/30 13:25:54;;;;;;;11.52;5.97;;;;;;;5.41;80.17;101589.75;5006582;28;20042;-95
2022/11/30 13:29:11;;;;;;;11.85;6.93;;;;;;;5.25;80.33;101569.44;5022201;28;20046;-94
2022/11/30 13:31:59;;;;;;;10.60;5.88;;;;;;;5.26;80.67;101589.81;4996514;28;20042;-86
2022/11/30 13:34:33;;;;;;;10.02;6.07;;;;;;;5.17;81.34;101577.09;5000125;28;20463;-94
2022/11/30 13:37:22;;;;;;;9.68;6.35;;;;;;;5.21;81.51;101577.75;5007160;28;20046;-92
2022/11/30 13:40:24;;;;;;;9.50;6.18;;;;;;;5.03;81.32;101555.84;5002233;28;20034;-90
2022/11/30 13:46:30;;;;;;;8.70;5.30;;;;;;;5.00;82.18;101590.72;5024471;28;20041;-93
2022/11/30 13:49:15;;;;;;;13.38;6.88;;;;;;;4.92;82.40;101564.56;5001249;28;20049;-90
2022/11/30 13:51:43;;;;;;;11.23;5.75;;;;;;;4.79;81.98;101529.88;4989308;28;20041;-86
2022/11/30 13:54:46;;;;;;;10.80;6.03;;;;;;;5.09;82.45;101584.75;5005651;28;20042;-89
2022/11/30 13:57:27;;;;;;;11.32;6.25;;;;;;;5.05;82.33;101573.44;4996481;28;20049;-88
2022/11/30 14:00:22;;;;;;;11.35;6.32;;;;;;;5.02;82.51;101567.47;5007100;28;20514;-89
2022/11/30 14:02:48;;;;;;;;;;;;;;;5.03;82.60;101582.50;4992571;28;20103;-88
2022/11/30 14:05:17;;;;;;;13.02;5.88;;;;;;;4.81;83.23;101586.59;4996791;28;20014;-87
2022/11/30 14:07:50;;;;;;;10.73;5.57;;;;;;;4.79;83.38;101588.50;5004947;28;20048;-89
2022/11/30 14:10:28;;;;;;;10.63;5.85;;;;;;;4.73;83.84;101583.59;5013923;28;20490;-89
2022/11/30 14:13:05;;;;;;;16.85;6.78;;;;;;;4.71;84.25;101590.81;4968560;28;20414;-89
2022/11/30 14:15:41;;;;;;;13.65;6.28;;;;;;;4.70;84.31;101593.56;4996331;28;20137;-87
2022/11/30 14:18:06;;;;;;;14.35;6.82;;;;;;;4.73;84.10;101590.69;5018217;28;20038;-86
2022/11/30 14:21:15;;;;;;;13.80;6.55;;;;;;;4.67;84.62;101583.97;5014358;28;20041;-89
2022/11/30 14:27:29;;;;;;;15.98;6.82;;;;;;;4.75;84.49;101579.03;4994929;28;20473;-88
2022/11/30 14:29:58;;;;;;;11.10;6.70;;;;;;;4.26;85.19;101531.63;4976675;28;20074;-86
2022/11/30 14:32:40;;;;;;;10.75;6.32;;;;;;;4.51;85.60;101594.78;4977565;28;20034;-88
2022/11/30 14:35:19;;;;;;;16.55;6.28;;;;;;;4.64;85.53;101602.84;4962476;28;20039;-85
2022/11/30 14:41:33;;;;;;;16.02;7.50;;;;;;;4.61;85.61;101603.91;5013907;28;20072;-85
2022/11/30 14:44:06;;;;;;;14.90;6.25;;;;;;;4.60;85.72;101603.97;4997663;28;20057;-84
2022/11/30 14:46:33;;;;;;;14.23;7.18;;;;;;;4.48;85.92;101588.81;4979701;28;20038;-86
2022/11/30 14:49:43;;;;;;;13.23;6.95;;;;;;;4.41;86.17;101599.84;4979913;28;20042;-87
2022/11/30 14:55:36;;;;;;;11.65;6.22;;;;;;;4.53;85.93;101611.50;5014468;28;20505;-87
2022/11/30 14:58:34;;;;;;;13.77;7.00;;;;;;;4.45;86.30;101611.16;4995746;28;20041;-87
2022/11/30 15:01:04;;;;;;;17.10;7.40;;;;;;;4.62;85.71;101608.25;4997107;28;20468;-88
2022/11/30 15:03:47;;;;;;;17.73;9.52;;;;;;;4.51;85.95;101593.91;4967303;28;20057;-89
2022/11/30 15:06:34;;;;;;;12.45;6.80;;;;;;;4.62;85.69;101615.41;4980746;28;20026;-90
2022/11/30 15:09:17;;;;;;;15.23;7.82;;;;;;;4.26;85.87;101560.03;4982728;28;20117;-87
2022/11/30 15:12:03;;;;;;;12.50;7.78;;;;;;;4.61;85.91;101621.66;5002970;28;20052;-88
2022/11/30 15:14:33;;;;;;;12.27;6.65;;;;;;;4.51;85.70;101585.94;5019381;28;20033;-89
2022/11/30 15:17:39;;;;;;;13.75;7.75;;;;;;;4.61;85.74;101619.00;5009353;28;20088;-92
2022/11/30 15:22:32;;;;;;;11.48;5.88;;;;;;;4.56;85.72;101586.47;5019892;28;20046;-88
2022/11/30 15:25:12;;;;;;;11.98;7.15;;;;;;;4.67;86.10;101618.63;4966115;28;20038;-88
2022/11/30 15:27:42;;;;;;;10.55;6.50;;;;;;;4.61;85.98;101616.34;4993906;28;20037;-91
2022/11/30 15:30:15;;;;;;;12.73;6.68;;;;;;;4.58;85.96;101611.22;4990925;28;20503;-89
2022/11/30 15:32:46;;;;;;;12.63;7.22;;;;;;;4.56;86.22;101618.44;4987609;28;20054;-89
2022/11/30 15:35:24;;;;;;;12.10;6.75;;;;;;;4.47;85.89;101592.41;4995682;28;20030;-91
2022/11/30 15:38:00;;;;;;;10.38;6.38;;;;;;;4.61;85.27;101619.00;4980416;28;20057;-86
2022/11/30 15:40:35;;;;;;;;;;;;;;;4.62;85.93;101631.38;5022476;28;20072;-89
2022/11/30 15:43:21;;;;;;;14.77;6.70;;;;;;;4.36;86.06;101601.94;5032519;28;19901;-90
2022/11/30 15:46:01;;;;;;;13.20;6.15;;;;;;;4.26;86.47;101576.00;5011312;28;20049;-91
2022/11/30 15:48:52;;;;;;;20.83;8.02;;;;;;;4.66;86.50;101627.56;4978356;28;20073;-91
2022/11/30 15:51:23;;;;;;;15.07;7.70;;;;;;;4.51;86.50;101601.91;4980267;28;20086;-93
2022/11/30 15:53:50;;;;;;;12.20;6.70;;;;;;;4.58;86.12;101624.53;4963995;28;20046;-89
2022/11/30 15:56:28;;;;;;;11.43;6.40;;;;;;;4.55;87.16;101630.06;5003205;28;20041;-87
2022/11/30 16:00:01;;;;;;;11.13;5.90;;;;;;;4.34;nan;101593.19;4998078;28;20086;-91
2022/11/30 16:03:19;;;;;;;12.00;6.53;;;;;;;4.55;86.88;101627.41;5005546;28;20525;-90
2022/11/30 16:06:19;;;;;;;11.48;6.50;;;;;;;4.62;86.93;101639.38;5014451;28;20052;-92
2022/11/30 16:09:15;;;;;;;15.20;7.15;;;;;;;4.60;86.71;101626.13;5002919;28;20046;-95
2022/11/30 16:12:18;;;;;;;13.43;6.78;;;;;;;4.68;86.47;101633.63;4990085;28;20399;-91
2022/11/30 16:14:53;;;;;;;11.75;6.53;;;;;;;4.78;85.91;101632.09;5015815;28;20038;-88
2022/11/30 16:17:31;;;;;;;11.75;5.88;;;;;;;4.65;85.69;101620.50;4978916;28;20115;-89
2022/11/30 16:20:19;;;;;;;12.18;5.93;;;;;;;4.70;85.87;101642.38;5002801;28;20044;-90
2022/11/30 16:22:49;;;;;;;13.43;6.55;;;;;;;4.71;85.82;101646.78;4969954;28;20063;-91
2022/11/30 16:25:22;;;;;;;11.38;6.32;;;;;;;4.46;86.15;101606.69;4963196;28;20059;-91
2022/11/30 16:27:57;;;;;;;13.13;6.60;;;;;;;4.45;86.04;101603.16;4959420;28;20049;-91
2022/11/30 16:30:30;;;;;;;13.50;6.85;;;;;;;4.53;85.49;101600.00;4976447;28;20030;-92
2022/11/30 16:36:53;;;;;;;9.65;5.68;;;;;;;4.84;84.78;101668.13;4984947;28;20054;-93
2022/11/30 16:39:20;;;;;;;10.00;5.45;;;;;;;4.50;85.05;101621.53;5181845;23;20054;-90
2022/11/30 16:42:22;;;;;;;12.80;5.55;;;;;;;4.79;85.25;101684.41;4982443;28;20047;-93
2022/11/30 16:44:49;;;;;;;10.50;5.47;;;;;;;4.80;84.97;101686.16;5001147;28;20039;-93
2022/11/30 16:47:25;;;;;;;11.98;6.30;;;;;;;4.44;84.99;101620.09;4994317;28;20492;-93
2022/11/30 16:50:06;;;;;;;8.98;5.60;;;;;;;4.75;84.88;101688.25;4968460;28;20173;-95
2022/11/30 16:53:15;;;;;;;9.20;5.30;;;;;;;4.73;84.78;101678.63;4983960;28;20043;-93
2022/11/30 16:59:33;;;;;;;10.30;6.22;;;;;;;4.70;84.58;101674.34;4980488;28;20122;-92
2022/11/30 17:02:20;;;;;;;13.40;6.15;;;;;;;4.72;84.57;101677.78;4974401;28;20042;-90
2022/11/30 17:05:21;;;;;;;12.18;6.63;;;;;;;4.69;84.48;101682.47;4991623;28;20035;-91
2022/11/30 17:11:49;;;;;;;10.30;5.60;;;;;;;4.68;84.17;101681.56;4992270;28;20115;-90
2022/11/30 17:26:24;;;;;;;13.88;5.50;;;;;;;4.73;84.71;101679.50;5024843;28;20057;-91
2022/11/30 17:28:56;;;;;;;9.40;5.63;;;;;;;4.53;84.31;101645.28;5023239;28;20081;-94
2022/11/30 17:31:26;;;;;;;10.20;5.90;;;;;;;4.63;84.07;101651.72;5007866;28;20042;-94
2022/11/30 17:33:54;;;;;;;12.68;5.60;;;;;;;4.48;84.06;101634.06;4980309;28;20468;-90
2022/11/30 17:36:58;;;;;;;8.55;5.13;;;;;;;4.84;83.98;101668.13;5038379;28;20049;-92
2022/11/30 17:39:27;;;;;;;9.15;5.28;;;;;;;4.78;83.83;101674.72;5012140;28;20034;-90
2022/11/30 17:41:55;;;;;;;10.05;5.35;;;;;;;4.65;84.67;101668.47;5027250;28;20018;-91
2022/11/30 17:44:25;;;;;;;8.93;4.90;;;;;;;4.52;84.41;101638.22;5009408;28;20046;-93
2022/11/30 17:46:55;;;;;;;8.35;4.95;;;;;;;4.35;83.87;101592.22;5001497;28;20073;-89
2022/11/30 17:49:32;;;;;;;11.43;5.00;;;;;;;4.58;83.96;101630.69;4999117;28;20053;-93
2022/11/30 17:51:59;;;;;;;13.93;4.90;;;;;;;4.72;83.69;101651.13;5000195;28;20396;-92
2022/11/30 17:54:27;;;;;;;7.53;4.25;;;;;;;4.76;83.40;101660.66;5003455;28;20041;-91
2022/11/30 17:56:54;;;;;;;9.55;5.75;;;;;;;4.50;84.10;101645.50;4984205;28;20148;-94
2022/11/30 17:59:24;;;;;;;9.80;5.10;;;;;;;4.47;83.77;101632.34;4994618;28;20176;-92
2022/11/30 18:01:58;;;;;;;10.98;4.68;;;;;;;4.43;83.80;101627.22;5006594;28;20124;-89
2022/11/30 18:04:25;;;;;;;8.15;5.22;;;;;;;4.41;83.61;101626.47;5010466;28;20042;-93
2022/11/30 18:06:51;;;;;;;8.75;4.57;;;;;;;4.63;83.59;101646.38;4975411;28;20069;-88
2022/11/30 18:09:17;;;;;;;10.77;5.45;;;;;;;4.52;83.95;101630.22;4987607;28;20046;-91
2022/11/30 18:11:58;;;;;;;;;;;;;;;4.75;83.81;101658.06;4979922;28;20136;-90
2022/11/30 18:14:31;;;;;;;9.27;4.38;;;;;;;4.61;83.88;101662.50;5010210;28;20238;-89
2022/11/30 18:17:03;;;;;;;7.82;4.40;;;;;;;4.42;83.74;101633.53;5014594;28;20160;-89
2022/11/30 18:19:30;;;;;;;10.77;5.68;;;;;;;4.31;84.22;101629.78;4992171;28;20038;-88
2022/11/30 18:21:56;;;;;;;9.05;4.35;;;;;;;4.48;84.12;101655.38;4999339;28;20110;-87
2022/11/30 18:24:22;;;;;;;7.97;4.70;;;;;;;4.36;84.05;101622.41;4978970;28;20154;-93
2022/11/30 18:26:53;;;;;;;8.50;5.07;;;;;;;4.43;84.40;101645.88;5008265;28;20038;-90
2022/11/30 18:29:27;;;;;;;10.57;5.47;;;;;;;4.72;84.02;101693.75;4998228;28;20430;-88
2022/11/30 18:31:52;;;;;;;8.10;5.15;;;;;;;4.40;83.95;101656.72;5007649;28;20136;-89
2022/11/30 18:34:21;;;;;;;8.82;4.88;;;;;;;4.40;83.95;101646.06;4979403;28;20089;-88
2022/11/30 18:40:08;;;;;;;9.15;5.20;;;;;;;4.53;84.17;101671.91;4997059;28;20107;-88
2022/11/30 18:42:35;;;;;;;8.43;4.88;;;;;;;4.63;84.09;101684.53;5012042;28;20040;-87
2022/11/30 18:45:05;;;;;;;10.10;6.03;;;;;;;4.31;84.61;101643.97;4979634;28;20061;-89
2022/11/30 18:47:32;;;;;;;10.90;6.00;;;;;;;4.38;84.76;101650.63;4974971;28;20054;-90
2022/11/30 18:50:20;;;;;;;8.02;5.32;;;;;;;4.65;84.51;101687.09;5004402;28;20054;-88
2022/11/30 18:53:31;;;;;;;8.98;5.00;;;;;;;4.65;84.41;101689.78;4977357;28;20097;-90
2022/11/30 18:56:18;;;;;;;7.97;5.32;;;;;;;4.49;84.36;101686.38;5007750;28;20072;-88
2022/11/30 18:58:55;;;;;;;10.82;5.28;;;;;;;4.55;84.75;101691.31;5015362;28;20041;-87
2022/11/30 19:01:25;;;;;;;19.58;11.90;;;;;;;4.34;84.65;101654.44;4994083;28;20077;-87
2022/11/30 19:03:55;;;;;;;11.18;5.35;;;;;;;4.35;84.67;101664.13;4994367;28;20070;-88
2022/11/30 19:06:31;;;;;;;10.07;5.80;;;;;;;4.51;84.78;101684.47;5006501;28;20058;-87
2022/11/30 19:08:59;;;;;;;10.60;5.60;;;;;;;4.41;84.82;101679.72;4990273;28;20034;-87
2022/11/30 19:11:32;;;;;;;9.40;4.63;;;;;;;4.49;84.29;101676.56;5014504;28;20042;-88
2022/11/30 19:14:04;;;;;;;9.52;5.53;;;;;;;4.29;84.60;101645.88;5000861;28;20038;-90
2022/11/30 19:16:41;;;;;;;12.75;5.70;;;;;;;4.28;84.27;101646.81;5015344;28;20148;-90
2022/11/30 19:19:08;;;;;;;10.05;5.82;;;;;;;4.42;84.34;101661.94;4983691;28;20049;-89
2022/11/30 19:21:34;;;;;;;8.70;4.65;;;;;;;4.48;84.39;101685.53;4978008;28;20137;-88
2022/11/30 19:24:00;;;;;;;10.43;5.28;;;;;;;4.39;83.92;101665.63;4973897;28;20403;-89
2022/11/30 19:26:27;;;;;;;10.05;5.05;;;;;;;4.34;84.34;101651.78;4981023;28;20104;-87
2022/11/30 19:28:54;;;;;;;10.45;5.72;;;;;;;4.49;84.00;101673.06;4992487;28;20042;-89
2022/11/30 19:31:20;;;;;;;;;;;;;;;4.63;83.95;101700.50;4983623;28;20477;-91
2022/11/30 19:33:48;;;;;;;11.25;5.90;;;;;;;4.38;84.05;101668.41;5006982;28;19925;-87
2022/11/30 19:36:16;;;;;;;9.48;6.00;;;;;;;4.44;84.12;101668.00;5012230;28;20121;-88
2022/11/30 19:38:41;;;;;;;8.73;5.78;;;;;;;4.23;84.43;101657.75;4993585;28;20604;-86
2022/11/30 19:41:08;;;;;;;11.75;6.40;;;;;;;4.28;84.21;101661.94;4994021;28;20045;-87
2022/11/30 19:43:42;;;;;;;9.48;6.00;;;;;;;4.41;84.40;101700.16;4975704;28;20046;-88
2022/11/30 19:46:26;;;;;;;11.27;5.78;;;;;;;4.24;84.27;101661.28;5007422;28;20041;-90
2022/11/30 19:48:56;;;;;;;10.05;5.78;;;;;;;4.44;84.46;101695.50;4988697;28;20068;-87
2022/11/30 19:51:23;;;;;;;11.52;6.22;;;;;;;4.20;84.88;101655.28;4980508;28;20045;-87
2022/11/30 19:53:54;;;;;;;11.75;5.90;;;;;;;4.33;84.23;101668.72;4967277;28;20140;-87
2022/11/30 19:56:22;;;;;;;11.05;6.20;;;;;;;4.44;84.56;101691.97;5000463;28;20050;-87
2022/11/30 19:58:48;;;;;;;10.43;6.03;;;;;;;4.13;84.47;101653.13;4989958;28;20042;-87
2022/11/30 20:01:21;;;;;;;10.15;5.82;;;;;;;4.40;84.40;101698.44;4993176;28;20065;-86
2022/11/30 20:03:49;;;;;;;10.70;6.00;;;;;;;4.16;84.18;101647.59;5017466;28;20096;-87
2022/11/30 20:06:16;;;;;;;9.55;5.85;;;;;;;4.24;84.45;101677.25;4981754;28;20038;-87
2022/11/30 20:08:43;;;;;;;10.18;6.13;;;;;;;4.03;84.76;101655.50;4988463;28;20046;-93
2022/11/30 20:11:22;;;;;;;13.10;7.55;;;;;;;4.27;84.45;101684.19;4965278;28;20106;-95
2022/11/30 20:14:18;;;;;;;10.52;6.10;;;;;;;4.35;84.37;101703.19;5022559;28;20111;-96
2022/11/30 20:17:12;;;;;;;10.90;6.13;;;;;;;4.06;84.69;101665.09;4968446;28;20039;-92
2022/11/30 20:19:54;;;;;;;10.80;6.47;;;;;;;3.98;84.62;101653.09;4984274;28;20088;-94
2022/11/30 20:23:01;;;;;;;12.60;6.68;;;;;;;4.27;84.90;101701.03;4999877;28;20378;-95
2022/11/30 20:26:28;;;;;;;11.15;5.32;;;;;;;4.31;84.37;101694.56;5011563;28;20057;-91
2022/11/30 20:29:00;;;;;;;11.73;6.50;;;;;;;3.93;84.49;101646.34;5014948;28;20410;-95
2022/11/30 20:31:32;;;;;;;15.55;7.43;;;;;;;3.89;84.77;101653.66;4998802;28;20050;-91
2022/11/30 20:34:10;;;;;;;12.63;6.78;;;;;;;4.08;84.66;101703.97;4979226;28;20239;-93
2022/11/30 20:36:58;;;;;;;12.02;6.68;;;;;;;3.87;84.77;101654.72;4995830;28;20053;-91
2022/11/30 20:39:27;;;;;;;15.68;7.25;;;;;;;3.81;85.23;101661.25;4993977;28;20096;-92
2022/11/30 20:41:56;;;;;;;13.60;7.30;;;;;;;3.61;85.63;101629.69;4981291;28;20064;-91
2022/11/30 20:44:22;;;;;;;13.98;7.80;;;;;;;3.76;85.12;101645.56;5006346;28;20046;-92
2022/11/30 20:47:34;;;;;;;14.85;8.27;;;;;;;3.83;84.85;101640.72;4986062;28;20060;-91
2022/11/30 20:50:02;;;;;;;15.65;7.07;;;;;;;3.85;84.69;101649.47;5014929;28;20053;-94
2022/11/30 20:52:47;;;;;;;16.02;7.63;;;;;;;3.88;84.79;101675.88;4991476;28;20046;-92